Nearby METAR Reports

 

KPBH - Phillips, Wisconsin, USA
Distance from station: SE 13mi, 21km
Updated: 02/20/2020 5:55pm
Clear
Clear
 Wind from SW
Wind: SW 12 mph , 19 km/h, Gust: 16 mph , 26 km/h
Temperature: 10°F , -12°C
Wind Chill: -5°F , -21°C
Dew Point: -8°F , -22°C
Humidity: 44%
Barometer: 30.49 inHg , 1032.5 hPa
Clouds: Clear
Visibility: 10 miles , 16 km
2020/02/20 23:55 KPBH 202355Z AUTO 23010G14KT 10SM CLR M12/M22 A3049 RMK AO2 T11231225 11100 21132
KRCX - Ladysmith/Rusk, Wisconsin, USA
Distance from station: SW 29mi, 46km
Updated: 02/20/2020 5:55pm
Clear
Clear
 Wind from SW
Wind: SW 8 mph , 13 km/h
Temperature: 12°F , -11°C
Wind Chill: 0°F , -18°C
Dew Point: -8°F , -22°C
Humidity: 40%
Barometer: 30.56 inHg , 1034.9 hPa
Clouds: Clear
Visibility: 10 miles , 16 km
2020/02/20 23:55 KRCX 202355Z AUTO 23007KT 10SM CLR M11/M22 A3056 RMK AO2 T11121225 11093 21127
 
KD25 - Manitowish Water, Wisconsin, USA
Distance from station: ENE 41mi, 66km
Updated: 02/20/2020 7:55am
NOT Current
Clear
Clear
 Wind from calm
Wind: Calm
Temperature: -22°F , -30°C
Dew Point: -27°F , -33°C
Humidity: 75%
Barometer: 30.58 inHg , 1035.6 hPa
Clouds: Clear
Visibility: 10 miles , 16 km
2020/02/20 13:55 KD25 201355Z AUTO 00000KT 10SM CLR M30/M33 A3058 RMK AO2 T13011335
KHYR - Hayward, Wisconsin, USA
Distance from station: WNW 42mi, 68km
Updated: 02/20/2020 4:53pm
Clear
Clear
 Wind from SW
Wind: SW 10 mph , 17 km/h, Gust: 18 mph , 30 km/h
Temperature: 16°F , -9°C
Wind Chill: 4°F , -16°C
Dew Point: -8°F , -22°C
Humidity: 34%
Barometer: 30.52 inHg , 1033.5 hPa
Clouds: Clear
Visibility: 10 miles , 16 km
2020/02/20 22:53 KHYR 202253Z AUTO 22009G16KT 10SM CLR M09/M22 A3052 RMK AO2 SLP373 T10891222
 
KARV - Minocqua/Woodruf, Wisconsin, USA
Distance from station: E 44mi, 71km
Updated: 02/20/2020 5:35pm
Clear
Clear
 Wind from WSW
Wind: WSW 5 mph , 7 km/h
Temperature: 14°F , -10°C
Wind Chill: 6°F , -14°C
Dew Point: -6°F , -21°C
Humidity: 41%
Barometer: 30.44 inHg , 1030.8 hPa
Clouds: Clear
Visibility: 10 miles , 16 km
2020/02/20 23:35 KARV 202335Z AUTO 24004KT 10SM CLR M10/M21 A3044 RMK AO2 T11001214
KTKV - Tomahawk Regnl, Wisconsin, USA
Distance from station: ESE 46mi, 74km
Updated: 02/20/2020 5:35pm
Clear
Clear
 Wind from WSW
Wind: WSW 3 mph , 6 km/h
Temperature: 12°F , -11°C
Dew Point: -13°F , -25°C
Humidity: 31%
Barometer: 30.50 inHg , 1032.8 hPa
Clouds: Clear
Visibility: 10 miles , 16 km
2020/02/20 23:35 KTKV 202335Z AUTO 24003KT 10SM CLR M11/M25 A3050 RMK AO2 T11091251